フェアバンクス の空港の天気 - METARとTAF

フェアバンクス国際空港 ( PAFA / FAI ) - アメリカ アラスカ州フェアバンクス
飛行場実況気象(Metar)
観測時間05/27 17:53 AKDT (05/28 01:53 UTC)
風向・風速西南西 2m/s
視程10km以上
天気現象
全天の4割程度の雲 雲底高度 2130m
全天の8割程度の雲 雲底高度 3050m
全天の8割程度の雲 雲底高度 5490m
気温17.2℃
湿度33%
気圧1024.2hPa
METARPAFA 280153Z 25003KT 10SM SCT070 BKN100 BKN180 17/01 A3023 RMK AO2 SLP242 T01720006
過去の天気等 Google飛行場航空写真 Wunderground天気予報

過去48時間のMETAR

飛行場予報(TAF)
発表時間: 5/27 15:24 AKDT (5/27 23:24 UTC)
予報対象時間: 27日16時 AKDT ~ 28日22時 AKDT
風向・風速不定 2m/s
視程10km以上
全天の4割程度の雲 雲底高度 1830m
全天の4割程度の雲 雲底高度 2440m
全天の8割程度の雲 雲底高度 3350m
28日13時 AKDT から
風向・風速北北西 3m/s
視程10km以上
全天の8割程度の雲 雲底高度 1520m
PAFA 272324Z 2800/2906 VRB03KT P6SM SCT060 SCT080 BKN110
FM282100 33005KT P6SM BKN050